Time,TemperatureF,DewpointF,PressureIn,WindDirection,WindDirectionDegrees,WindSpeedMPH,WindSpeedGustMPH,Humidity,HourlyPrecipIn,Conditions,Clouds,dailyrainin,SolarRadiationWatts/m^2,SoftwareType,DateUTC
2013-07-05 00:01:00,75.0,71.0,-100.00,SE,127,2.0,6.0,87,0.00,,,-99.99,0.000000,,2013-07-05 04:01:00,
2013-07-05 00:22:00,74.0,70.0,-100.00,SE,132,1.0,4.0,88,0.00,,,0.00,0.000000,,2013-07-05 04:22:00,
2013-07-05 00:33:00,74.0,70.0,-100.00,SE,132,1.0,4.0,88,0.00,,,0.00,0.000000,,2013-07-05 04:33:00,
2013-07-05 00:43:00,74.0,70.0,-100.00,SE,132,1.0,4.0,88,0.00,,,0.00,0.000000,,2013-07-05 04:43:00,
2013-07-05 00:53:00,74.0,70.0,-100.00,SE,132,1.0,4.0,88,0.00,,,0.00,0.000000,,2013-07-05 04:53:00,
2013-07-05 01:01:00,74.0,70.0,-100.00,SE,132,1.0,4.0,88,0.00,,,0.00,0.000000,,2013-07-05 05:01:00,
2013-07-05 01:22:00,73.0,71.0,-100.00,NE,53,1.0,4.0,92,0.00,,,0.00,0.000000,,2013-07-05 05:22:00,
2013-07-05 01:33:00,73.0,71.0,-100.00,NE,53,1.0,4.0,92,0.00,,,0.00,0.000000,,2013-07-05 05:33:00,
2013-07-05 01:43:00,73.0,71.0,-100.00,NE,53,1.0,4.0,92,0.00,,,0.00,0.000000,,2013-07-05 05:43:00,
2013-07-05 01:52:00,73.0,71.0,-100.00,NE,53,1.0,4.0,92,0.00,,,0.00,0.000000,,2013-07-05 05:52:00,
2013-07-05 02:02:00,73.0,71.0,-100.00,NE,53,1.0,4.0,92,0.00,,,0.00,0.000000,,2013-07-05 06:02:00,
2013-07-05 02:23:00,72.0,70.0,-100.00,NE,45,0.0,2.0,93,0.00,,,0.00,0.000000,,2013-07-05 06:23:00,
2013-07-05 02:34:00,72.0,70.0,-100.00,NE,45,0.0,2.0,93,0.00,,,0.00,0.000000,,2013-07-05 06:34:00,
2013-07-05 02:44:00,72.0,70.0,-100.00,NE,45,0.0,2.0,93,0.00,,,0.00,0.000000,,2013-07-05 06:44:00,
2013-07-05 02:53:00,72.0,70.0,-100.00,NE,45,0.0,2.0,93,0.00,,,0.00,0.000000,,2013-07-05 06:53:00,
2013-07-05 03:02:00,72.0,70.0,-100.00,NE,45,0.0,2.0,93,0.00,,,0.00,0.000000,,2013-07-05 07:02:00,
2013-07-05 03:23:00,72.0,70.0,-100.00,West,262,0.0,0.0,94,0.00,,,0.00,0.000000,,2013-07-05 07:23:00,
2013-07-05 03:34:00,72.0,70.0,-100.00,West,262,0.0,0.0,94,0.00,,,0.00,0.000000,,2013-07-05 07:34:00,
2013-07-05 03:43:00,72.0,70.0,-100.00,West,262,0.0,0.0,94,0.00,,,0.00,0.000000,,2013-07-05 07:43:00,
2013-07-05 03:53:00,72.0,70.0,-100.00,West,262,0.0,0.0,94,0.00,,,0.00,0.000000,,2013-07-05 07:53:00,
2013-07-05 04:03:00,72.0,70.0,-100.00,West,262,0.0,0.0,94,0.00,,,0.00,0.000000,,2013-07-05 08:03:00,
2013-07-05 04:04:00,71.0,69.0,-100.00,West,279,0.0,0.0,95,0.00,,,0.00,0.000000,,2013-07-05 08:04:00,
2013-07-05 04:23:00,71.0,69.0,-100.00,West,279,0.0,0.0,95,0.00,,,0.00,0.000000,,2013-07-05 08:23:00,
2013-07-05 04:33:00,71.0,69.0,-100.00,West,279,0.0,0.0,95,0.00,,,0.00,0.000000,,2013-07-05 08:33:00,
2013-07-05 04:44:00,71.0,69.0,-100.00,West,279,0.0,0.0,95,0.00,,,0.00,0.000000,,2013-07-05 08:44:00,
2013-07-05 04:57:00,71.0,69.0,-100.00,West,279,0.0,0.0,95,0.00,,,0.00,0.000000,,2013-07-05 08:57:00,
2013-07-05 05:04:00,71.0,69.0,-100.00,ENE,61,0.0,0.0,95,0.00,,,0.00,0.000000,,2013-07-05 09:04:00,
2013-07-05 05:28:00,71.0,69.0,-100.00,ENE,61,0.0,0.0,95,0.00,,,0.00,0.000000,,2013-07-05 09:28:00,
2013-07-05 05:37:00,71.0,69.0,-100.00,ENE,61,0.0,0.0,95,0.00,,,0.00,0.000000,,2013-07-05 09:37:00,
2013-07-05 05:48:00,71.0,69.0,-100.00,ENE,61,0.0,0.0,95,0.00,,,0.00,0.000000,,2013-07-05 09:48:00,
2013-07-05 05:57:00,71.0,69.0,-100.00,ENE,61,0.0,0.0,95,0.00,,,0.00,0.000000,,2013-07-05 09:57:00,
2013-07-05 06:04:00,71.0,69.0,-100.00,ENE,58,0.0,0.0,95,0.00,,,0.00,0.000000,,2013-07-05 10:04:00,
2013-07-05 06:38:00,71.0,69.0,-100.00,ENE,58,0.0,0.0,95,0.00,,,0.00,0.000000,,2013-07-05 10:38:00,
2013-07-05 06:47:00,71.0,69.0,-100.00,ENE,58,0.0,0.0,95,0.00,,,0.00,0.000000,,2013-07-05 10:47:00,
2013-07-05 06:58:00,71.0,69.0,-100.00,ENE,58,0.0,0.0,95,0.00,,,0.00,0.000000,,2013-07-05 10:58:00,
2013-07-05 07:04:00,71.0,69.0,-100.00,ENE,76,0.0,0.0,95,0.00,,,0.00,5.000000,,2013-07-05 11:04:00,
2013-07-05 07:25:00,71.0,69.0,-100.00,ENE,76,0.0,0.0,95,0.00,,,0.00,5.000000,,2013-07-05 11:25:00,
2013-07-05 08:00:00,71.0,69.0,-100.00,ENE,76,0.0,0.0,95,0.00,,,0.00,5.000000,,2013-07-05 12:00:00,
2013-07-05 08:50:00,79.0,77.0,-100.00,East,94,2.0,5.0,95,0.00,,,0.00,111.000000,,2013-07-05 12:50:00,
2013-07-05 09:00:00,79.0,77.0,-100.00,East,94,2.0,5.0,95,0.00,,,0.00,111.000000,,2013-07-05 13:00:00,
2013-07-05 09:04:00,81.0,77.0,-100.00,East,93,2.0,5.0,88,0.00,,,0.00,163.000000,,2013-07-05 13:04:00,
2013-07-05 09:26:00,81.0,77.0,-100.00,East,93,2.0,5.0,88,0.00,,,0.00,163.000000,,2013-07-05 13:26:00,
2013-07-05 09:39:00,81.0,77.0,-100.00,East,93,2.0,5.0,88,0.00,,,0.00,163.000000,,2013-07-05 13:39:00,
2013-07-05 09:58:00,81.0,77.0,-100.00,East,93,2.0,5.0,88,0.00,,,0.00,163.000000,,2013-07-05 13:58:00,
2013-07-05 10:04:00,84.0,76.0,-100.00,SSE,162,3.0,10.0,76,0.00,,,0.00,394.000000,,2013-07-05 14:04:00,
2013-07-05 10:40:00,84.0,76.0,-100.00,SSE,162,3.0,10.0,76,0.00,,,0.00,394.000000,,2013-07-05 14:40:00,
2013-07-05 10:47:00,84.0,76.0,-100.00,SSE,162,3.0,10.0,76,0.00,,,0.00,394.000000,,2013-07-05 14:47:00,
2013-07-05 10:58:00,84.0,76.0,-100.00,SSE,162,3.0,10.0,76,0.00,,,0.00,394.000000,,2013-07-05 14:58:00,
2013-07-05 11:34:00,86.0,75.0,-100.00,ESE,115,6.0,13.0,70,0.00,,,-99.99,522.000000,,2013-07-05 15:34:00,
2013-07-05 11:43:00,86.0,75.0,-100.00,ESE,115,6.0,13.0,70,0.00,,,-99.99,522.000000,,2013-07-05 15:43:00,
2013-07-05 11:53:00,86.0,75.0,-100.00,ESE,115,6.0,13.0,70,0.00,,,-99.99,522.000000,,2013-07-05 15:53:00,
2013-07-05 12:02:00,86.0,75.0,-100.00,ESE,115,6.0,13.0,70,0.00,,,-99.99,522.000000,,2013-07-05 16:02:00,
2013-07-05 12:44:00,88.0,74.0,-100.00,ESE,116,7.0,12.0,64,0.00,,,0.00,838.000000,,2013-07-05 16:44:00,
2013-07-05 12:53:00,88.0,74.0,-100.00,ESE,116,7.0,12.0,64,0.00,,,0.00,838.000000,,2013-07-05 16:53:00,
2013-07-05 13:02:00,88.0,74.0,-100.00,ESE,116,7.0,12.0,64,0.00,,,0.00,838.000000,,2013-07-05 17:02:00,
2013-07-05 13:33:00,89.0,75.0,-100.00,ESE,108,6.0,17.0,63,0.00,,,0.00,997.000000,,2013-07-05 17:33:00,
2013-07-05 13:43:00,89.0,75.0,-100.00,ESE,108,6.0,17.0,63,0.00,,,0.00,997.000000,,2013-07-05 17:43:00,
2013-07-05 13:53:00,89.0,75.0,-100.00,ESE,108,6.0,17.0,63,0.00,,,0.00,997.000000,,2013-07-05 17:53:00,
2013-07-05 14:02:00,89.0,75.0,-100.00,ESE,108,6.0,17.0,63,0.00,,,0.00,997.000000,,2013-07-05 18:02:00,
2013-07-05 14:33:00,88.0,74.0,-100.00,SE,136,6.0,14.0,64,0.00,,,0.00,832.000000,,2013-07-05 18:33:00,
2013-07-05 14:43:00,88.0,74.0,-100.00,SE,136,6.0,14.0,64,0.00,,,0.00,832.000000,,2013-07-05 18:43:00,
2013-07-05 14:53:00,88.0,74.0,-100.00,SE,136,6.0,14.0,64,0.00,,,0.00,832.000000,,2013-07-05 18:53:00,
2013-07-05 15:01:00,88.0,74.0,-100.00,SE,136,6.0,14.0,64,0.00,,,0.00,832.000000,,2013-07-05 19:01:00,
2013-07-05 15:34:00,89.0,74.0,-100.00,ESE,110,8.0,14.0,61,0.00,,,0.00,955.000000,,2013-07-05 19:34:00,
2013-07-05 15:43:00,89.0,74.0,-100.00,ESE,110,8.0,14.0,61,0.00,,,0.00,955.000000,,2013-07-05 19:43:00,
2013-07-05 15:53:00,89.0,74.0,-100.00,ESE,110,8.0,14.0,61,0.00,,,0.00,955.000000,,2013-07-05 19:53:00,
2013-07-05 16:02:00,89.0,74.0,-100.00,ESE,110,8.0,14.0,61,0.00,,,0.00,955.000000,,2013-07-05 20:02:00,
2013-07-05 16:33:00,86.0,73.0,-100.00,ESE,120,7.0,16.0,65,0.00,,,0.00,561.000000,,2013-07-05 20:33:00,
2013-07-05 16:43:00,86.0,73.0,-100.00,ESE,120,7.0,16.0,65,0.00,,,0.00,561.000000,,2013-07-05 20:43:00,
2013-07-05 16:53:00,86.0,73.0,-100.00,ESE,120,7.0,16.0,65,0.00,,,0.00,561.000000,,2013-07-05 20:53:00,
2013-07-05 17:01:00,86.0,73.0,-100.00,ESE,120,7.0,16.0,65,0.00,,,0.00,561.000000,,2013-07-05 21:01:00,
2013-07-05 17:34:00,85.0,72.0,-100.00,SE,127,6.0,18.0,66,0.00,,,0.00,672.000000,,2013-07-05 21:34:00,
2013-07-05 17:43:00,85.0,72.0,-100.00,SE,127,6.0,18.0,66,0.00,,,0.00,672.000000,,2013-07-05 21:43:00,
2013-07-05 17:53:00,85.0,72.0,-100.00,SE,127,6.0,18.0,66,0.00,,,0.00,672.000000,,2013-07-05 21:53:00,
2013-07-05 18:02:00,85.0,72.0,-100.00,SE,127,6.0,18.0,66,0.00,,,0.00,672.000000,,2013-07-05 22:02:00,
2013-07-05 18:22:00,86.0,75.0,-100.00,ESE,119,5.0,14.0,69,0.00,,,0.00,398.000000,,2013-07-05 22:22:00,
2013-07-05 18:34:00,86.0,75.0,-100.00,ESE,119,5.0,14.0,69,0.00,,,0.00,398.000000,,2013-07-05 22:34:00,
2013-07-05 18:43:00,86.0,75.0,-100.00,ESE,119,5.0,14.0,69,0.00,,,0.00,398.000000,,2013-07-05 22:43:00,
2013-07-05 18:53:00,86.0,75.0,-100.00,ESE,119,5.0,14.0,69,0.00,,,0.00,398.000000,,2013-07-05 22:53:00,
2013-07-05 19:02:00,86.0,75.0,-100.00,ESE,119,5.0,14.0,69,0.00,,,0.00,398.000000,,2013-07-05 23:02:00,
2013-07-05 19:23:00,83.0,73.0,-100.00,SE,126,5.0,14.0,72,0.00,,,0.00,251.000000,,2013-07-05 23:23:00,
2013-07-05 19:32:00,83.0,73.0,-100.00,SE,126,5.0,14.0,72,0.00,,,0.00,251.000000,,2013-07-05 23:32:00,
2013-07-05 19:43:00,83.0,73.0,-100.00,SE,126,5.0,14.0,72,0.00,,,0.00,251.000000,,2013-07-05 23:43:00,
2013-07-05 19:53:00,83.0,73.0,-100.00,SE,126,5.0,14.0,72,0.00,,,0.00,251.000000,,2013-07-05 23:53:00,
2013-07-05 20:01:00,83.0,73.0,-100.00,SE,126,5.0,14.0,72,0.00,,,0.00,251.000000,,2013-07-06 00:01:00,
2013-07-05 20:22:00,81.0,73.0,-100.00,ESE,119,5.0,11.0,77,0.00,,,0.00,40.000000,,2013-07-06 00:22:00,
2013-07-05 20:33:00,81.0,73.0,-100.00,ESE,119,5.0,11.0,77,0.00,,,0.00,40.000000,,2013-07-06 00:33:00,
2013-07-05 20:43:00,81.0,73.0,-100.00,ESE,119,5.0,11.0,77,0.00,,,0.00,40.000000,,2013-07-06 00:43:00,
2013-07-05 20:53:00,81.0,73.0,-100.00,ESE,119,5.0,11.0,77,0.00,,,0.00,40.000000,,2013-07-06 00:53:00,
2013-07-05 21:02:00,81.0,73.0,-100.00,ESE,119,5.0,11.0,77,0.00,,,0.00,40.000000,,2013-07-06 01:02:00,
2013-07-05 21:33:00,80.0,74.0,-100.00,East,88,2.0,10.0,81,0.00,,,0.00,5.000000,,2013-07-06 01:33:00,
2013-07-05 21:43:00,80.0,74.0,-100.00,East,88,2.0,10.0,81,0.00,,,0.00,5.000000,,2013-07-06 01:43:00,
2013-07-05 21:53:00,80.0,74.0,-100.00,East,88,2.0,10.0,81,0.00,,,0.00,5.000000,,2013-07-06 01:53:00,
2013-07-05 22:02:00,80.0,74.0,-100.00,East,88,2.0,10.0,81,0.00,,,0.00,5.000000,,2013-07-06 02:02:00,
2013-07-05 22:34:00,79.0,74.0,-100.00,ESE,116,2.0,6.0,84,0.00,,,0.00,0.000000,,2013-07-06 02:34:00,
2013-07-05 22:43:00,79.0,74.0,-100.00,ESE,116,2.0,6.0,84,0.00,,,0.00,0.000000,,2013-07-06 02:43:00,
2013-07-05 22:53:00,79.0,74.0,-100.00,ESE,116,2.0,6.0,84,0.00,,,0.00,0.000000,,2013-07-06 02:53:00,
2013-07-05 23:02:00,79.0,74.0,-100.00,ESE,116,2.0,6.0,84,0.00,,,0.00,0.000000,,2013-07-06 03:02:00,
2013-07-05 23:34:00,79.0,74.0,-100.00,East,99,2.0,6.0,85,0.00,,,0.00,0.000000,,2013-07-06 03:34:00,
2013-07-05 23:43:00,79.0,74.0,-100.00,East,99,2.0,6.0,85,0.00,,,0.00,0.000000,,2013-07-06 03:43:00,
2013-07-05 23:53:00,79.0,74.0,-100.00,East,99,2.0,6.0,85,0.00,,,0.00,0.000000,,2013-07-06 03:53:00,